sensor_id;sensor_type;location;lat;lon;timestamp;temperature;humidity
21149;DHT22;10732;51.472;6.466;2023-01-01T00:00:06;15.60;99.90
21149;DHT22;10732;51.472;6.466;2023-01-01T00:02:32;15.70;99.90
21149;DHT22;10732;51.472;6.466;2023-01-01T00:04:58;15.70;99.90
21149;DHT22;10732;51.472;6.466;2023-01-01T00:07:23;15.70;99.90
21149;DHT22;10732;51.472;6.466;2023-01-01T00:09:49;15.60;99.90
21149;DHT22;10732;51.472;6.466;2023-01-01T00:12:33;15.70;99.90
21149;DHT22;10732;51.472;6.466;2023-01-01T00:14:59;15.70;99.90
21149;DHT22;10732;51.472;6.466;2023-01-01T00:17:25;15.60;99.90
21149;DHT22;10732;51.472;6.466;2023-01-01T00:19:53;15.60;99.90
21149;DHT22;10732;51.472;6.466;2023-01-01T00:22:18;15.60;99.90
21149;DHT22;10732;51.472;6.466;2023-01-01T00:24:44;15.60;99.90
21149;DHT22;10732;51.472;6.466;2023-01-01T00:27:09;15.70;99.90
21149;DHT22;10732;51.472;6.466;2023-01-01T00:29:35;15.70;99.90
21149;DHT22;10732;51.472;6.466;2023-01-01T00:32:00;15.60;99.90
21149;DHT22;10732;51.472;6.466;2023-01-01T00:34:26;15.60;99.90
21149;DHT22;10732;51.472;6.466;2023-01-01T00:36:51;15.60;99.90
21149;DHT22;10732;51.472;6.466;2023-01-01T00:39:17;15.50;99.90
21149;DHT22;10732;51.472;6.466;2023-01-01T00:41:42;15.40;99.90
21149;DHT22;10732;51.472;6.466;2023-01-01T00:44:08;15.50;99.90
21149;DHT22;10732;51.472;6.466;2023-01-01T00:46:33;15.60;99.90
21149;DHT22;10732;51.472;6.466;2023-01-01T00:48:59;15.60;99.90
21149;DHT22;10732;51.472;6.466;2023-01-01T00:51:24;15.60;99.90
21149;DHT22;10732;51.472;6.466;2023-01-01T00:53:50;15.70;99.90
21149;DHT22;10732;51.472;6.466;2023-01-01T00:56:15;15.60;99.90
21149;DHT22;10732;51.472;6.466;2023-01-01T00:58:41;15.50;99.90
21149;DHT22;10732;51.472;6.466;2023-01-01T01:01:07;15.50;99.90
21149;DHT22;10732;51.472;6.466;2023-01-01T01:03:32;15.40;99.90
21149;DHT22;10732;51.472;6.466;2023-01-01T01:08:27;15.40;99.90
21149;DHT22;10732;51.472;6.466;2023-01-01T01:10:53;15.50;99.90
21149;DHT22;10732;51.472;6.466;2023-01-01T01:13:19;15.40;99.90
21149;DHT22;10732;51.472;6.466;2023-01-01T01:15:45;15.40;99.90
21149;DHT22;10732;51.472;6.466;2023-01-01T01:18:10;15.40;99.90
21149;DHT22;10732;51.472;6.466;2023-01-01T01:20:36;15.40;99.90
21149;DHT22;10732;51.472;6.466;2023-01-01T01:23:01;15.40;99.90
21149;DHT22;10732;51.472;6.466;2023-01-01T01:25:27;15.40;99.90
21149;DHT22;10732;51.472;6.466;2023-01-01T01:27:53;15.40;99.90
21149;DHT22;10732;51.472;6.466;2023-01-01T01:30:18;15.40;99.90
21149;DHT22;10732;51.472;6.466;2023-01-01T01:32:44;15.40;99.90
21149;DHT22;10732;51.472;6.466;2023-01-01T01:35:09;15.30;99.90
21149;DHT22;10732;51.472;6.466;2023-01-01T01:37:35;15.30;99.90
21149;DHT22;10732;51.472;6.466;2023-01-01T01:40:00;15.10;99.90
21149;DHT22;10732;51.472;6.466;2023-01-01T01:42:26;15.10;99.90
21149;DHT22;10732;51.472;6.466;2023-01-01T01:45:00;15.00;99.90
21149;DHT22;10732;51.472;6.466;2023-01-01T01:50:22;15.10;99.90
21149;DHT22;10732;51.472;6.466;2023-01-01T01:55:31;15.00;99.90
21149;DHT22;10732;51.472;6.466;2023-01-01T01:57:58;15.00;99.90
21149;DHT22;10732;51.472;6.466;2023-01-01T02:00:23;15.10;99.90
21149;DHT22;10732;51.472;6.466;2023-01-01T02:03:08;15.00;99.90
21149;DHT22;10732;51.472;6.466;2023-01-01T02:05:34;14.90;99.90
21149;DHT22;10732;51.472;6.466;2023-01-01T02:08:02;14.90;99.90
21149;DHT22;10732;51.472;6.466;2023-01-01T02:10:28;14.80;99.90
21149;DHT22;10732;51.472;6.466;2023-01-01T02:12:55;14.80;99.90
21149;DHT22;10732;51.472;6.466;2023-01-01T02:15:22;14.80;99.90
21149;DHT22;10732;51.472;6.466;2023-01-01T02:20:39;14.70;99.90
21149;DHT22;10732;51.472;6.466;2023-01-01T02:28:49;14.80;99.90
21149;DHT22;10732;51.472;6.466;2023-01-01T02:31:22;14.70;99.90
21149;DHT22;10732;51.472;6.466;2023-01-01T02:33:49;14.70;99.90
21149;DHT22;10732;51.472;6.466;2023-01-01T02:36:18;14.70;99.90
21149;DHT22;10732;51.472;6.466;2023-01-01T02:38:47;14.60;99.90
21149;DHT22;10732;51.472;6.466;2023-01-01T02:41:37;14.60;99.90
21149;DHT22;10732;51.472;6.466;2023-01-01T02:44:04;14.60;99.90
21149;DHT22;10732;51.472;6.466;2023-01-01T02:46:35;14.50;99.90
21149;DHT22;10732;51.472;6.466;2023-01-01T02:49:01;14.50;99.90
21149;DHT22;10732;51.472;6.466;2023-01-01T03:00:01;14.50;99.90
21149;DHT22;10732;51.472;6.466;2023-01-01T03:05:54;14.50;99.90
21149;DHT22;10732;51.472;6.466;2023-01-01T03:11:32;14.50;99.90
21149;DHT22;10732;51.472;6.466;2023-01-01T03:14:24;14.50;99.90
21149;DHT22;10732;51.472;6.466;2023-01-01T03:17:03;14.50;99.90
21149;DHT22;10732;51.472;6.466;2023-01-01T03:19:34;14.50;99.90
21149;DHT22;10732;51.472;6.466;2023-01-01T03:22:12;14.40;99.90
21149;DHT22;10732;51.472;6.466;2023-01-01T03:24:49;14.40;99.90
21149;DHT22;10732;51.472;6.466;2023-01-01T03:30:08;14.40;99.90
21149;DHT22;10732;51.472;6.466;2023-01-01T03:32:38;14.40;99.90
21149;DHT22;10732;51.472;6.466;2023-01-01T03:35:33;14.50;99.90
21149;DHT22;10732;51.472;6.466;2023-01-01T03:38:00;14.40;99.90
21149;DHT22;10732;51.472;6.466;2023-01-01T03:40:29;14.50;99.90
21149;DHT22;10732;51.472;6.466;2023-01-01T03:42:59;14.50;99.90
21149;DHT22;10732;51.472;6.466;2023-01-01T03:45:30;14.60;99.90
21149;DHT22;10732;51.472;6.466;2023-01-01T03:47:57;14.60;99.90
21149;DHT22;10732;51.472;6.466;2023-01-01T03:50:29;14.50;99.90
21149;DHT22;10732;51.472;6.466;2023-01-01T03:53:13;14.60;99.90
21149;DHT22;10732;51.472;6.466;2023-01-01T03:55:49;14.60;99.90
21149;DHT22;10732;51.472;6.466;2023-01-01T03:58:27;14.50;99.90
21149;DHT22;10732;51.472;6.466;2023-01-01T04:01:21;14.40;99.90
21149;DHT22;10732;51.472;6.466;2023-01-01T04:03:48;14.40;99.90
21149;DHT22;10732;51.472;6.466;2023-01-01T04:06:14;14.50;99.90
21149;DHT22;10732;51.472;6.466;2023-01-01T04:08:40;14.50;99.90
21149;DHT22;10732;51.472;6.466;2023-01-01T04:11:14;14.50;99.90
21149;DHT22;10732;51.472;6.466;2023-01-01T04:14:01;14.50;99.90
21149;DHT22;10732;51.472;6.466;2023-01-01T04:16:27;14.40;99.90
21149;DHT22;10732;51.472;6.466;2023-01-01T04:18:52;14.40;99.90
21149;DHT22;10732;51.472;6.466;2023-01-01T04:21:18;14.50;99.90
21149;DHT22;10732;51.472;6.466;2023-01-01T04:23:43;14.50;99.90
21149;DHT22;10732;51.472;6.466;2023-01-01T04:26:13;14.40;99.90
21149;DHT22;10732;51.472;6.466;2023-01-01T04:28:39;14.40;99.90
21149;DHT22;10732;51.472;6.466;2023-01-01T04:31:05;14.40;99.90
21149;DHT22;10732;51.472;6.466;2023-01-01T04:33:31;14.40;99.90
21149;DHT22;10732;51.472;6.466;2023-01-01T04:36:05;14.40;99.90
21149;DHT22;10732;51.472;6.466;2023-01-01T04:38:32;14.30;99.90
21149;DHT22;10732;51.472;6.466;2023-01-01T04:40:59;14.30;99.90
21149;DHT22;10732;51.472;6.466;2023-01-01T04:43:24;14.30;99.90
21149;DHT22;10732;51.472;6.466;2023-01-01T04:46:00;14.30;99.90
21149;DHT22;10732;51.472;6.466;2023-01-01T04:48:27;14.40;99.90
21149;DHT22;10732;51.472;6.466;2023-01-01T04:50:58;14.30;99.90
21149;DHT22;10732;51.472;6.466;2023-01-01T04:53:25;14.30;99.90
21149;DHT22;10732;51.472;6.466;2023-01-01T04:55:52;14.30;99.90
21149;DHT22;10732;51.472;6.466;2023-01-01T04:58:18;14.20;99.90
21149;DHT22;10732;51.472;6.466;2023-01-01T05:00:48;14.30;99.90
21149;DHT22;10732;51.472;6.466;2023-01-01T05:03:14;14.30;99.90
21149;DHT22;10732;51.472;6.466;2023-01-01T05:05:40;14.20;99.90
21149;DHT22;10732;51.472;6.466;2023-01-01T05:08:06;14.10;99.90
21149;DHT22;10732;51.472;6.466;2023-01-01T05:10:31;14.20;99.90
21149;DHT22;10732;51.472;6.466;2023-01-01T05:12:57;14.20;99.90
21149;DHT22;10732;51.472;6.466;2023-01-01T05:15:22;14.20;99.90
21149;DHT22;10732;51.472;6.466;2023-01-01T05:17:48;14.10;99.90
21149;DHT22;10732;51.472;6.466;2023-01-01T05:20:13;14.10;99.90
21149;DHT22;10732;51.472;6.466;2023-01-01T05:22:39;14.10;99.90
21149;DHT22;10732;51.472;6.466;2023-01-01T05:25:04;14.10;99.90
21149;DHT22;10732;51.472;6.466;2023-01-01T05:27:30;14.10;99.90
21149;DHT22;10732;51.472;6.466;2023-01-01T05:29:56;14.00;99.90
21149;DHT22;10732;51.472;6.466;2023-01-01T05:32:21;14.00;99.90
21149;DHT22;10732;51.472;6.466;2023-01-01T05:34:47;14.00;99.90
21149;DHT22;10732;51.472;6.466;2023-01-01T05:37:12;13.90;99.90
21149;DHT22;10732;51.472;6.466;2023-01-01T05:39:38;13.90;99.90
21149;DHT22;10732;51.472;6.466;2023-01-01T05:42:03;13.80;99.90
21149;DHT22;10732;51.472;6.466;2023-01-01T05:44:29;13.90;99.90
21149;DHT22;10732;51.472;6.466;2023-01-01T05:46:54;13.90;99.90
21149;DHT22;10732;51.472;6.466;2023-01-01T05:49:20;13.90;99.90
21149;DHT22;10732;51.472;6.466;2023-01-01T05:51:46;13.90;99.90
21149;DHT22;10732;51.472;6.466;2023-01-01T05:54:11;14.00;99.90
21149;DHT22;10732;51.472;6.466;2023-01-01T05:56:37;13.90;99.90
21149;DHT22;10732;51.472;6.466;2023-01-01T05:59:02;13.90;99.90
21149;DHT22;10732;51.472;6.466;2023-01-01T06:01:29;13.90;99.90
21149;DHT22;10732;51.472;6.466;2023-01-01T06:03:56;13.90;99.90
21149;DHT22;10732;51.472;6.466;2023-01-01T06:06:24;14.00;99.90
21149;DHT22;10732;51.472;6.466;2023-01-01T06:08:56;14.00;99.90
21149;DHT22;10732;51.472;6.466;2023-01-01T06:11:22;14.00;99.90
21149;DHT22;10732;51.472;6.466;2023-01-01T06:13:54;13.90;99.90
21149;DHT22;10732;51.472;6.466;2023-01-01T06:16:20;14.00;99.90
21149;DHT22;10732;51.472;6.466;2023-01-01T06:18:46;13.90;99.90
21149;DHT22;10732;51.472;6.466;2023-01-01T06:21:17;13.90;99.90
21149;DHT22;10732;51.472;6.466;2023-01-01T06:23:43;13.90;99.90
21149;DHT22;10732;51.472;6.466;2023-01-01T06:26:17;14.00;99.90
21149;DHT22;10732;51.472;6.466;2023-01-01T06:28:43;14.10;99.90
21149;DHT22;10732;51.472;6.466;2023-01-01T06:31:11;14.20;99.90
21149;DHT22;10732;51.472;6.466;2023-01-01T06:33:37;14.10;99.90
21149;DHT22;10732;51.472;6.466;2023-01-01T06:36:05;14.10;99.90
21149;DHT22;10732;51.472;6.466;2023-01-01T06:38:32;14.10;99.90
21149;DHT22;10732;51.472;6.466;2023-01-01T06:41:01;14.00;99.90
21149;DHT22;10732;51.472;6.466;2023-01-01T06:43:28;13.90;99.90
21149;DHT22;10732;51.472;6.466;2023-01-01T06:46:03;14.00;99.90
21149;DHT22;10732;51.472;6.466;2023-01-01T06:48:31;14.00;99.90
21149;DHT22;10732;51.472;6.466;2023-01-01T06:50:57;13.90;99.90
21149;DHT22;10732;51.472;6.466;2023-01-01T06:53:24;14.00;99.90
21149;DHT22;10732;51.472;6.466;2023-01-01T06:55:50;14.00;99.90
21149;DHT22;10732;51.472;6.466;2023-01-01T06:58:15;13.90;99.90
21149;DHT22;10732;51.472;6.466;2023-01-01T07:00:41;13.90;99.90
21149;DHT22;10732;51.472;6.466;2023-01-01T07:03:09;13.90;99.90
21149;DHT22;10732;51.472;6.466;2023-01-01T07:05:35;13.90;99.90
21149;DHT22;10732;51.472;6.466;2023-01-01T07:08:00;13.80;99.90
21149;DHT22;10732;51.472;6.466;2023-01-01T07:10:26;13.80;99.90
21149;DHT22;10732;51.472;6.466;2023-01-01T07:12:51;13.80;99.90
21149;DHT22;10732;51.472;6.466;2023-01-01T07:15:17;13.80;99.90
21149;DHT22;10732;51.472;6.466;2023-01-01T07:17:42;13.70;99.90
21149;DHT22;10732;51.472;6.466;2023-01-01T07:20:08;13.60;99.90
21149;DHT22;10732;51.472;6.466;2023-01-01T07:22:35;13.50;99.90
21149;DHT22;10732;51.472;6.466;2023-01-01T07:25:02;13.40;99.90
21149;DHT22;10732;51.472;6.466;2023-01-01T07:27:28;13.40;99.90
21149;DHT22;10732;51.472;6.466;2023-01-01T07:29:53;13.30;99.90
21149;DHT22;10732;51.472;6.466;2023-01-01T07:32:19;13.40;99.90
21149;DHT22;10732;51.472;6.466;2023-01-01T07:34:44;13.30;99.90
21149;DHT22;10732;51.472;6.466;2023-01-01T07:37:10;13.30;99.90
21149;DHT22;10732;51.472;6.466;2023-01-01T07:39:35;13.20;99.90
21149;DHT22;10732;51.472;6.466;2023-01-01T07:42:01;13.20;99.90
21149;DHT22;10732;51.472;6.466;2023-01-01T07:44:26;13.20;99.90
21149;DHT22;10732;51.472;6.466;2023-01-01T07:47:01;13.20;99.90
21149;DHT22;10732;51.472;6.466;2023-01-01T07:49:27;13.20;99.90
21149;DHT22;10732;51.472;6.466;2023-01-01T07:51:52;13.10;99.90
21149;DHT22;10732;51.472;6.466;2023-01-01T07:54:18;13.00;99.90
21149;DHT22;10732;51.472;6.466;2023-01-01T07:56:43;13.10;99.90
21149;DHT22;10732;51.472;6.466;2023-01-01T07:59:09;13.10;99.90
21149;DHT22;10732;51.472;6.466;2023-01-01T08:01:35;13.10;99.90
21149;DHT22;10732;51.472;6.466;2023-01-01T08:04:01;13.10;99.90
21149;DHT22;10732;51.472;6.466;2023-01-01T08:06:27;13.10;99.90
21149;DHT22;10732;51.472;6.466;2023-01-01T08:08:53;13.10;99.90
21149;DHT22;10732;51.472;6.466;2023-01-01T08:11:18;13.10;99.90
21149;DHT22;10732;51.472;6.466;2023-01-01T08:13:44;13.10;99.90
21149;DHT22;10732;51.472;6.466;2023-01-01T08:16:09;13.20;99.90
21149;DHT22;10732;51.472;6.466;2023-01-01T08:18:35;13.20;99.90
21149;DHT22;10732;51.472;6.466;2023-01-01T08:21:01;13.20;99.90
21149;DHT22;10732;51.472;6.466;2023-01-01T08:23:27;13.20;99.90
21149;DHT22;10732;51.472;6.466;2023-01-01T08:25:56;13.10;99.90
21149;DHT22;10732;51.472;6.466;2023-01-01T08:28:22;13.10;99.90
21149;DHT22;10732;51.472;6.466;2023-01-01T08:30:47;13.10;99.90
21149;DHT22;10732;51.472;6.466;2023-01-01T08:33:13;13.20;99.90
21149;DHT22;10732;51.472;6.466;2023-01-01T08:35:41;13.20;99.90
21149;DHT22;10732;51.472;6.466;2023-01-01T08:38:09;13.20;99.90
21149;DHT22;10732;51.472;6.466;2023-01-01T08:40:35;13.30;99.90
21149;DHT22;10732;51.472;6.466;2023-01-01T08:43:01;13.30;99.90
21149;DHT22;10732;51.472;6.466;2023-01-01T08:45:26;13.30;99.90
21149;DHT22;10732;51.472;6.466;2023-01-01T08:47:52;13.30;99.90
21149;DHT22;10732;51.472;6.466;2023-01-01T08:50:17;13.20;99.90
21149;DHT22;10732;51.472;6.466;2023-01-01T08:52:43;13.20;99.90
21149;DHT22;10732;51.472;6.466;2023-01-01T08:55:09;13.20;99.90
21149;DHT22;10732;51.472;6.466;2023-01-01T08:57:34;13.30;99.90
21149;DHT22;10732;51.472;6.466;2023-01-01T09:00:00;13.20;99.90
21149;DHT22;10732;51.472;6.466;2023-01-01T09:02:25;13.30;99.90
21149;DHT22;10732;51.472;6.466;2023-01-01T09:04:51;13.20;99.90
21149;DHT22;10732;51.472;6.466;2023-01-01T09:07:16;13.20;99.90
21149;DHT22;10732;51.472;6.466;2023-01-01T09:09:42;13.20;99.90
21149;DHT22;10732;51.472;6.466;2023-01-01T09:12:14;13.30;99.90
21149;DHT22;10732;51.472;6.466;2023-01-01T09:14:40;13.30;99.90
21149;DHT22;10732;51.472;6.466;2023-01-01T09:17:06;13.30;99.90
21149;DHT22;10732;51.472;6.466;2023-01-01T09:19:31;13.40;99.90
21149;DHT22;10732;51.472;6.466;2023-01-01T09:21:57;13.40;99.90
21149;DHT22;10732;51.472;6.466;2023-01-01T09:24:23;13.40;99.90
21149;DHT22;10732;51.472;6.466;2023-01-01T09:26:48;13.40;99.90
21149;DHT22;10732;51.472;6.466;2023-01-01T09:29:15;13.40;99.90
21149;DHT22;10732;51.472;6.466;2023-01-01T09:31:45;13.50;99.90
21149;DHT22;10732;51.472;6.466;2023-01-01T09:34:11;13.50;99.90
21149;DHT22;10732;51.472;6.466;2023-01-01T09:36:37;13.50;99.90
21149;DHT22;10732;51.472;6.466;2023-01-01T09:39:02;13.60;99.90
21149;DHT22;10732;51.472;6.466;2023-01-01T09:41:51;13.60;99.90
21149;DHT22;10732;51.472;6.466;2023-01-01T09:47:16;13.60;99.90
21149;DHT22;10732;51.472;6.466;2023-01-01T09:49:45;13.50;99.90
21149;DHT22;10732;51.472;6.466;2023-01-01T09:52:13;13.60;99.90
21149;DHT22;10732;51.472;6.466;2023-01-01T09:54:40;13.50;99.90
21149;DHT22;10732;51.472;6.466;2023-01-01T09:57:11;13.60;99.90
21149;DHT22;10732;51.472;6.466;2023-01-01T09:59:38;13.60;99.90
21149;DHT22;10732;51.472;6.466;2023-01-01T10:02:37;13.50;99.90
21149;DHT22;10732;51.472;6.466;2023-01-01T10:10:49;13.60;99.90
21149;DHT22;10732;51.472;6.466;2023-01-01T10:18:36;13.70;99.90
21149;DHT22;10732;51.472;6.466;2023-01-01T10:21:22;13.60;99.90
21149;DHT22;10732;51.472;6.466;2023-01-01T10:23:59;13.70;99.90
21149;DHT22;10732;51.472;6.466;2023-01-01T10:26:27;13.70;99.90
21149;DHT22;10732;51.472;6.466;2023-01-01T10:31:35;13.70;99.90
21149;DHT22;10732;51.472;6.466;2023-01-01T10:34:15;13.80;99.90
21149;DHT22;10732;51.472;6.466;2023-01-01T10:36:45;13.80;99.90
21149;DHT22;10732;51.472;6.466;2023-01-01T10:39:15;13.80;99.90
21149;DHT22;10732;51.472;6.466;2023-01-01T10:41:42;13.80;99.90
21149;DHT22;10732;51.472;6.466;2023-01-01T10:44:07;13.90;99.90
21149;DHT22;10732;51.472;6.466;2023-01-01T10:46:36;14.00;99.90
21149;DHT22;10732;51.472;6.466;2023-01-01T10:49:07;14.10;99.90
21149;DHT22;10732;51.472;6.466;2023-01-01T10:51:38;14.00;99.90
21149;DHT22;10732;51.472;6.466;2023-01-01T10:56:56;14.30;99.90
21149;DHT22;10732;51.472;6.466;2023-01-01T10:59:38;14.50;99.90
21149;DHT22;10732;51.472;6.466;2023-01-01T11:02:19;14.40;99.90
21149;DHT22;10732;51.472;6.466;2023-01-01T11:04:46;14.40;99.90
21149;DHT22;10732;51.472;6.466;2023-01-01T11:07:35;14.30;99.90
21149;DHT22;10732;51.472;6.466;2023-01-01T11:10:04;14.30;99.90
21149;DHT22;10732;51.472;6.466;2023-01-01T11:12:34;14.30;99.90
21149;DHT22;10732;51.472;6.466;2023-01-01T11:15:00;14.40;99.90
21149;DHT22;10732;51.472;6.466;2023-01-01T11:17:29;14.30;99.90
21149;DHT22;10732;51.472;6.466;2023-01-01T11:19:57;14.30;99.90
21149;DHT22;10732;51.472;6.466;2023-01-01T11:22:40;14.30;99.90
21149;DHT22;10732;51.472;6.466;2023-01-01T11:25:21;14.30;99.90
21149;DHT22;10732;51.472;6.466;2023-01-01T11:27:48;14.30;99.90
21149;DHT22;10732;51.472;6.466;2023-01-01T11:30:25;14.30;99.90
21149;DHT22;10732;51.472;6.466;2023-01-01T11:32:58;14.40;99.90
21149;DHT22;10732;51.472;6.466;2023-01-01T11:35:29;14.40;99.90
21149;DHT22;10732;51.472;6.466;2023-01-01T11:37:56;14.50;99.90
21149;DHT22;10732;51.472;6.466;2023-01-01T11:41:06;14.50;99.90
21149;DHT22;10732;51.472;6.466;2023-01-01T11:43:20;14.50;99.90
21149;DHT22;10732;51.472;6.466;2023-01-01T11:45:46;14.50;99.90
21149;DHT22;10732;51.472;6.466;2023-01-01T11:48:20;14.60;99.90
21149;DHT22;10732;51.472;6.466;2023-01-01T11:50:53;14.60;99.90
21149;DHT22;10732;51.472;6.466;2023-01-01T11:56:14;14.70;99.90
21149;DHT22;10732;51.472;6.466;2023-01-01T11:58:56;14.70;99.90
21149;DHT22;10732;51.472;6.466;2023-01-01T12:04:27;14.70;99.90
21149;DHT22;10732;51.472;6.466;2023-01-01T12:07:05;14.70;99.90
21149;DHT22;10732;51.472;6.466;2023-01-01T12:09:41;14.60;99.90
21149;DHT22;10732;51.472;6.466;2023-01-01T12:12:17;14.50;99.90
21149;DHT22;10732;51.472;6.466;2023-01-01T12:14:54;14.50;99.90
21149;DHT22;10732;51.472;6.466;2023-01-01T12:17:31;14.60;99.90
21149;DHT22;10732;51.472;6.466;2023-01-01T12:20:18;14.60;99.90
21149;DHT22;10732;51.472;6.466;2023-01-01T12:22:47;14.50;99.90
21149;DHT22;10732;51.472;6.466;2023-01-01T12:25:15;14.30;99.90
21149;DHT22;10732;51.472;6.466;2023-01-01T12:30:22;14.20;99.90
21149;DHT22;10732;51.472;6.466;2023-01-01T12:36:00;14.10;99.90
21149;DHT22;10732;51.472;6.466;2023-01-01T12:43:58;14.10;99.90
21149;DHT22;10732;51.472;6.466;2023-01-01T12:54:40;14.20;99.90
21149;DHT22;10732;51.472;6.466;2023-01-01T12:57:35;14.10;99.90
21149;DHT22;10732;51.472;6.466;2023-01-01T13:00:12;14.20;99.90
21149;DHT22;10732;51.472;6.466;2023-01-01T13:02:54;14.20;99.90
21149;DHT22;10732;51.472;6.466;2023-01-01T13:05:42;14.20;99.90
21149;DHT22;10732;51.472;6.466;2023-01-01T13:08:10;14.20;99.90
21149;DHT22;10732;51.472;6.466;2023-01-01T13:10:45;14.10;99.90
21149;DHT22;10732;51.472;6.466;2023-01-01T13:13:12;14.20;99.90
21149;DHT22;10732;51.472;6.466;2023-01-01T13:20:44;14.00;99.90
21149;DHT22;10732;51.472;6.466;2023-01-01T13:28:42;13.90;99.90
21149;DHT22;10732;51.472;6.466;2023-01-01T13:31:07;13.90;99.90
21149;DHT22;10732;51.472;6.466;2023-01-01T13:33:33;13.80;99.90
21149;DHT22;10732;51.472;6.466;2023-01-01T13:44:09;13.70;99.90
21149;DHT22;10732;51.472;6.466;2023-01-01T13:46:40;13.60;99.90
21149;DHT22;10732;51.472;6.466;2023-01-01T13:52:37;13.60;99.90
21149;DHT22;10732;51.472;6.466;2023-01-01T13:55:43;13.60;99.90
21149;DHT22;10732;51.472;6.466;2023-01-01T14:01:18;13.50;99.90
21149;DHT22;10732;51.472;6.466;2023-01-01T14:03:51;13.40;99.90
21149;DHT22;10732;51.472;6.466;2023-01-01T14:06:31;13.40;99.90
21149;DHT22;10732;51.472;6.466;2023-01-01T14:09:13;13.40;99.90
21149;DHT22;10732;51.472;6.466;2023-01-01T14:11:40;13.40;99.90
21149;DHT22;10732;51.472;6.466;2023-01-01T14:14:26;13.30;99.90
21149;DHT22;10732;51.472;6.466;2023-01-01T14:16:58;13.40;99.90
21149;DHT22;10732;51.472;6.466;2023-01-01T14:19:25;13.40;99.90
21149;DHT22;10732;51.472;6.466;2023-01-01T14:21:52;13.30;99.90
21149;DHT22;10732;51.472;6.466;2023-01-01T14:24:19;13.30;99.90
21149;DHT22;10732;51.472;6.466;2023-01-01T14:26:46;13.30;99.90
21149;DHT22;10732;51.472;6.466;2023-01-01T14:29:29;13.30;99.90
21149;DHT22;10732;51.472;6.466;2023-01-01T14:31:58;13.20;99.90
21149;DHT22;10732;51.472;6.466;2023-01-01T14:34:27;13.20;99.90
21149;DHT22;10732;51.472;6.466;2023-01-01T14:36:56;13.30;99.90
21149;DHT22;10732;51.472;6.466;2023-01-01T14:39:24;13.30;99.90
21149;DHT22;10732;51.472;6.466;2023-01-01T14:41:51;13.20;99.90
21149;DHT22;10732;51.472;6.466;2023-01-01T14:44:20;13.20;99.90
21149;DHT22;10732;51.472;6.466;2023-01-01T14:46:48;13.30;99.90
21149;DHT22;10732;51.472;6.466;2023-01-01T14:49:18;13.20;99.90
21149;DHT22;10732;51.472;6.466;2023-01-01T14:51:56;13.20;99.90
21149;DHT22;10732;51.472;6.466;2023-01-01T14:54:37;13.20;99.90
21149;DHT22;10732;51.472;6.466;2023-01-01T14:57:09;13.20;99.90
21149;DHT22;10732;51.472;6.466;2023-01-01T14:59:35;13.20;99.90
21149;DHT22;10732;51.472;6.466;2023-01-01T15:02:11;13.20;99.90
21149;DHT22;10732;51.472;6.466;2023-01-01T15:04:37;13.10;99.90
21149;DHT22;10732;51.472;6.466;2023-01-01T15:07:04;13.00;99.90
21149;DHT22;10732;51.472;6.466;2023-01-01T15:09:30;13.00;99.90
21149;DHT22;10732;51.472;6.466;2023-01-01T15:11:58;13.00;99.90
21149;DHT22;10732;51.472;6.466;2023-01-01T15:14:40;12.90;99.90
21149;DHT22;10732;51.472;6.466;2023-01-01T15:17:09;12.90;99.90
21149;DHT22;10732;51.472;6.466;2023-01-01T15:19:36;12.90;99.90
21149;DHT22;10732;51.472;6.466;2023-01-01T15:22:26;12.90;99.90
21149;DHT22;10732;51.472;6.466;2023-01-01T15:24:53;12.80;99.90
21149;DHT22;10732;51.472;6.466;2023-01-01T15:27:34;12.80;99.90
21149;DHT22;10732;51.472;6.466;2023-01-01T15:30:01;12.80;99.90
21149;DHT22;10732;51.472;6.466;2023-01-01T15:32:30;12.70;99.90
21149;DHT22;10732;51.472;6.466;2023-01-01T15:34:58;12.70;99.90
21149;DHT22;10732;51.472;6.466;2023-01-01T15:37:44;12.80;99.90
21149;DHT22;10732;51.472;6.466;2023-01-01T15:42:44;12.80;99.90
21149;DHT22;10732;51.472;6.466;2023-01-01T15:45:27;12.70;99.90
21149;DHT22;10732;51.472;6.466;2023-01-01T15:48:20;12.70;99.90
21149;DHT22;10732;51.472;6.466;2023-01-01T15:53:20;12.60;99.90
21149;DHT22;10732;51.472;6.466;2023-01-01T15:55:57;12.60;99.90
21149;DHT22;10732;51.472;6.466;2023-01-01T15:58:31;12.60;99.90
21149;DHT22;10732;51.472;6.466;2023-01-01T16:01:03;12.60;99.90
21149;DHT22;10732;51.472;6.466;2023-01-01T16:03:31;12.60;99.90
21149;DHT22;10732;51.472;6.466;2023-01-01T16:05:57;12.60;99.90
21149;DHT22;10732;51.472;6.466;2023-01-01T16:08:24;12.60;99.90
21149;DHT22;10732;51.472;6.466;2023-01-01T16:10:50;12.60;99.90
21149;DHT22;10732;51.472;6.466;2023-01-01T16:13:16;12.60;99.90
21149;DHT22;10732;51.472;6.466;2023-01-01T16:15:57;12.60;99.90
21149;DHT22;10732;51.472;6.466;2023-01-01T16:18:33;12.60;99.90
21149;DHT22;10732;51.472;6.466;2023-01-01T16:21:01;12.60;99.90
21149;DHT22;10732;51.472;6.466;2023-01-01T16:23:27;12.60;99.90
21149;DHT22;10732;51.472;6.466;2023-01-01T16:25:52;12.70;99.90
21149;DHT22;10732;51.472;6.466;2023-01-01T16:28:18;12.70;99.90
21149;DHT22;10732;51.472;6.466;2023-01-01T16:30:44;12.70;99.90
21149;DHT22;10732;51.472;6.466;2023-01-01T16:33:19;12.70;99.90
21149;DHT22;10732;51.472;6.466;2023-01-01T16:35:45;12.70;99.90
21149;DHT22;10732;51.472;6.466;2023-01-01T16:38:11;12.50;99.90
21149;DHT22;10732;51.472;6.466;2023-01-01T16:40:37;12.50;99.90
21149;DHT22;10732;51.472;6.466;2023-01-01T16:43:03;12.40;99.90
21149;DHT22;10732;51.472;6.466;2023-01-01T16:45:30;12.40;99.90
21149;DHT22;10732;51.472;6.466;2023-01-01T16:47:55;12.30;99.90
21149;DHT22;10732;51.472;6.466;2023-01-01T16:50:21;12.20;99.90
21149;DHT22;10732;51.472;6.466;2023-01-01T16:52:46;12.10;99.90
21149;DHT22;10732;51.472;6.466;2023-01-01T16:55:12;12.10;99.90
21149;DHT22;10732;51.472;6.466;2023-01-01T16:57:38;12.00;99.90
21149;DHT22;10732;51.472;6.466;2023-01-01T17:00:05;11.90;99.90
21149;DHT22;10732;51.472;6.466;2023-01-01T17:02:31;11.80;99.90
21149;DHT22;10732;51.472;6.466;2023-01-01T17:04:56;11.70;99.90
21149;DHT22;10732;51.472;6.466;2023-01-01T17:07:22;11.70;99.90
21149;DHT22;10732;51.472;6.466;2023-01-01T17:09:47;11.60;99.90
21149;DHT22;10732;51.472;6.466;2023-01-01T17:12:13;11.60;99.90
21149;DHT22;10732;51.472;6.466;2023-01-01T17:14:38;11.60;99.90
21149;DHT22;10732;51.472;6.466;2023-01-01T17:17:04;11.50;99.90
21149;DHT22;10732;51.472;6.466;2023-01-01T17:19:29;11.50;99.90
21149;DHT22;10732;51.472;6.466;2023-01-01T17:21:55;11.50;99.90
21149;DHT22;10732;51.472;6.466;2023-01-01T17:24:20;11.40;99.90
21149;DHT22;10732;51.472;6.466;2023-01-01T17:26:53;11.40;99.90
21149;DHT22;10732;51.472;6.466;2023-01-01T17:29:20;11.40;99.90
21149;DHT22;10732;51.472;6.466;2023-01-01T17:31:46;11.30;99.90